Time;durP1;ratioP1;P1;durP2;ratioP2;P2;SDS_P1;SDS_P2;PMS_P1;PMS_P2;Temp;Humidity;BMP_temperature;BMP_pressure;BME280_temperature;BME280_humidity;BME280_pressure;Samples;Min_cycle;Max_cycle;Signal;HPM_P1;HPM_P2
2021/09/26 00:01:08;;;;;;;9.57;8.67;;;17.50;99.90;;;;;;4843313;29;20287;-90
2021/09/26 00:03:34;;;;;;;9.17;8.40;;;17.40;99.90;;;;;;4845289;29;20201;-89
2021/09/26 00:05:59;;;;;;;9.57;8.73;;;17.30;99.90;;;;;;4833304;29;20217;-90
2021/09/26 00:08:25;;;;;;;9.43;8.63;;;17.30;99.90;;;;;;4850630;29;20277;-90
2021/09/26 00:10:51;;;;;;;8.90;8.10;;;17.30;99.90;;;;;;4846946;29;20202;-90
2021/09/26 00:13:17;;;;;;;9.53;8.63;;;17.30;99.90;;;;;;4847039;29;20499;-90
2021/09/26 00:15:42;;;;;;;10.03;9.03;;;17.30;99.90;;;;;;4831608;29;20201;-90
2021/09/26 00:18:08;;;;;;;11.60;8.83;;;17.40;99.90;;;;;;4833791;29;20245;-90
2021/09/26 00:20:34;;;;;;;9.80;8.93;;;17.50;99.90;;;;;;4845255;29;20620;-90
2021/09/26 00:22:59;;;;;;;9.80;9.00;;;17.40;99.90;;;;;;4834251;29;20301;-90
2021/09/26 00:25:25;;;;;;;9.63;8.83;;;17.40;99.90;;;;;;4845676;29;20203;-90
2021/09/26 00:27:51;;;;;;;9.47;8.67;;;17.40;99.90;;;;;;4846697;29;20805;-91
2021/09/26 00:30:17;;;;;;;10.67;9.63;;;17.40;99.90;;;;;;4832065;29;20209;-90
2021/09/26 00:32:44;;;;;;;10.60;9.60;;;17.50;99.90;;;;;;4848472;29;20698;-89
2021/09/26 00:35:10;;;;;;;10.43;9.37;;;17.50;99.90;;;;;;4856902;29;20237;-89
2021/09/26 00:37:37;;;;;;;10.10;9.10;;;17.50;99.90;;;;;;4832106;29;20455;-90
2021/09/26 00:40:05;;;;;;;9.70;8.90;;;17.40;99.90;;;;;;4831484;29;20796;-91
2021/09/26 00:42:30;;;;;;;9.60;8.70;;;17.50;99.90;;;;;;4831462;29;20553;-90
2021/09/26 00:44:57;;;;;;;9.00;8.13;;;17.40;99.90;;;;;;4848228;29;20438;-90
2021/09/26 00:47:24;;;;;;;9.57;8.77;;;17.50;99.90;;;;;;4850413;29;20558;-89
2021/09/26 00:49:50;;;;;;;10.80;9.80;;;17.50;99.90;;;;;;4849144;29;20491;-90
2021/09/26 00:52:18;;;;;;;9.83;8.83;;;17.50;99.90;;;;;;4842040;29;20495;-91
2021/09/26 00:54:44;;;;;;;8.70;7.90;;;17.50;99.90;;;;;;4831768;29;20546;-90
2021/09/26 00:57:10;;;;;;;8.60;7.80;;;17.50;99.90;;;;;;4848148;29;20471;-90
2021/09/26 00:59:36;;;;;;;10.60;9.70;;;17.50;99.90;;;;;;4846086;29;20458;-90
2021/09/26 01:02:02;;;;;;;9.80;8.40;;;17.60;99.90;;;;;;4845627;29;20519;-90
2021/09/26 01:04:29;;;;;;;9.60;8.80;;;17.50;99.90;;;;;;4833816;29;20234;-91
2021/09/26 01:06:58;;;;;;;9.73;8.73;;;17.60;99.90;;;;;;4834828;29;20456;-90
2021/09/26 01:09:33;;;;;;;9.60;8.70;;;17.50;99.90;;;;;;4843989;29;20455;-90
2021/09/26 01:12:17;;;;;;;9.03;8.30;;;17.50;99.90;;;;;;4830639;29;20454;-90
2021/09/26 01:15:06;;;;;;;9.13;8.43;;;17.40;99.90;;;;;;4829148;29;20462;-90
2021/09/26 01:17:44;;;;;;;10.50;9.50;;;17.40;99.90;;;;;;4844831;29;20447;-89
2021/09/26 01:20:16;;;;;;;9.53;8.73;;;17.40;99.90;;;;;;4829935;29;20454;-90
2021/09/26 01:23:03;;;;;;;9.53;8.70;;;17.40;99.90;;;;;;4833914;29;20565;-90
2021/09/26 01:26:18;;;;;;;10.13;9.13;;;17.40;99.90;;;;;;4845388;29;20461;-90
2021/09/26 01:29:13;;;;;;;9.50;8.70;;;17.40;99.90;;;;;;4833897;29;20459;-90
2021/09/26 01:31:44;;;;;;;10.47;9.57;;;17.40;99.90;;;;;;4830779;29;20462;-90
2021/09/26 01:34:28;;;;;;;10.03;9.00;;;17.30;99.90;;;;;;4846025;29;20593;-91
2021/09/26 01:37:08;;;;;;;11.30;10.17;;;17.20;99.90;;;;;;4842131;29;21456;-90
2021/09/26 01:39:43;;;;;;;9.87;8.97;;;17.20;99.90;;;;;;4843732;29;20466;-91
2021/09/26 01:42:16;;;;;;;9.73;8.73;;;17.10;99.90;;;;;;4846772;29;20466;-90
2021/09/26 01:44:54;;;;;;;10.80;9.87;;;17.00;99.90;;;;;;4848130;29;20463;-90
2021/09/26 01:47:34;;;;;;;9.73;8.43;;;16.90;99.90;;;;;;4845637;29;20988;-90
2021/09/26 01:50:03;;;;;;;9.27;8.30;;;16.80;99.90;;;;;;4843071;29;20446;-90
2021/09/26 01:52:33;;;;;;;9.80;8.77;;;16.70;99.90;;;;;;4842528;29;21049;-90
2021/09/26 01:55:00;;;;;;;9.60;8.90;;;16.60;99.90;;;;;;4831258;29;20588;-90
2021/09/26 01:57:26;;;;;;;8.83;7.90;;;16.40;99.90;;;;;;4844369;29;21024;-90
2021/09/26 01:59:56;;;;;;;9.83;8.83;;;16.30;99.90;;;;;;4843918;29;20443;-90
2021/09/26 02:02:24;;;;;;;9.83;9.03;;;16.30;99.90;;;;;;4843404;29;20448;-90
2021/09/26 02:04:59;;;;;;;8.97;8.27;;;16.20;99.90;;;;;;4838480;29;20438;-90
2021/09/26 02:07:38;;;;;;;11.30;8.80;;;16.30;99.90;;;;;;4854068;29;20438;-90
2021/09/26 02:10:05;;;;;;;10.00;8.70;;;16.40;99.90;;;;;;4830307;29;20454;-91
2021/09/26 02:12:32;;;;;;;9.57;8.77;;;16.40;99.90;;;;;;4831121;29;20464;-90
2021/09/26 02:15:00;;;;;;;11.43;9.13;;;16.30;99.90;;;;;;4834646;29;20522;-91
2021/09/26 02:17:29;;;;;;;9.37;8.50;;;16.20;99.90;;;;;;4838624;29;20450;-90
2021/09/26 02:20:01;;;;;;;9.50;8.60;;;16.10;99.90;;;;;;4845722;29;22721;-90
2021/09/26 02:22:29;;;;;;;9.43;8.63;;;15.90;99.90;;;;;;4849134;29;20466;-90
2021/09/26 02:24:55;;;;;;;9.73;8.80;;;15.80;99.90;;;;;;4849943;29;20480;-90
2021/09/26 02:27:21;;;;;;;10.27;9.27;;;15.70;99.90;;;;;;4833338;29;20534;-90
2021/09/26 02:29:46;;;;;;;9.73;8.93;;;15.70;99.90;;;;;;4838623;29;20506;-90
2021/09/26 02:32:12;;;;;;;9.87;8.90;;;15.70;99.90;;;;;;4847364;29;20458;-90
2021/09/26 02:34:38;;;;;;;10.27;9.37;;;15.70;99.90;;;;;;4850891;29;20224;-90
2021/09/26 02:37:04;;;;;;;9.23;8.47;;;15.70;99.90;;;;;;4832207;29;20222;-90
2021/09/26 02:39:29;;;;;;;9.23;8.40;;;15.70;99.90;;;;;;4849325;29;22386;-90
2021/09/26 02:42:24;;;;;;;11.30;8.77;;;15.80;99.90;;;;;;4835730;29;20257;-90
2021/09/26 02:45:07;;;;;;;10.50;9.47;;;16.00;99.90;;;;;;4832908;29;20300;-90
2021/09/26 02:47:55;;;;;;;11.70;10.50;;;16.10;99.90;;;;;;4832206;29;20879;-90
2021/09/26 02:50:21;;;;;;;10.80;9.80;;;16.30;99.90;;;;;;4846179;29;20461;-89
2021/09/26 02:52:47;;;;;;;10.50;9.43;;;16.40;99.90;;;;;;4832655;29;20471;-90
2021/09/26 02:55:14;;;;;;;10.70;9.70;;;16.50;99.90;;;;;;4847315;29;20516;-91
2021/09/26 02:57:41;;;;;;;10.80;9.80;;;16.50;99.90;;;;;;4834913;29;20451;-90
2021/09/26 03:00:08;;;;;;;10.30;9.30;;;16.60;99.90;;;;;;4834074;29;20779;-90
2021/09/26 03:02:34;;;;;;;9.73;8.93;;;16.50;99.90;;;;;;4833542;29;20465;-90
2021/09/26 03:04:59;;;;;;;10.70;9.80;;;16.50;99.90;;;;;;4847543;29;20441;-90
2021/09/26 03:07:25;;;;;;;9.73;8.87;;;16.40;99.90;;;;;;4834735;29;20435;-91
2021/09/26 03:09:52;;;;;;;9.50;8.50;;;16.30;99.90;;;;;;4833416;29;20191;-89
2021/09/26 03:12:20;;;;;;;9.80;8.90;;;16.20;99.90;;;;;;4847059;29;20470;-89
2021/09/26 03:14:47;;;;;;;9.90;8.90;;;16.10;99.90;;;;;;4844330;29;20455;-90
2021/09/26 03:17:12;;;;;;;10.40;9.30;;;16.00;99.90;;;;;;4844473;29;20447;-90
2021/09/26 03:19:38;;;;;;;9.23;8.50;;;15.90;99.90;;;;;;4847163;29;20455;-91
2021/09/26 03:22:05;;;;;;;9.87;8.93;;;15.80;99.90;;;;;;4848590;29;20638;-90
2021/09/26 03:24:32;;;;;;;10.50;9.40;;;15.80;99.90;;;;;;4830625;29;20870;-90
2021/09/26 03:27:03;;;;;;;11.00;9.90;;;15.80;99.90;;;;;;4844468;29;20925;-90
2021/09/26 03:29:32;;;;;;;10.33;9.33;;;15.70;99.90;;;;;;4847104;29;20483;-90
2021/09/26 03:31:59;;;;;;;10.03;9.13;;;15.60;99.90;;;;;;4835899;29;20469;-90
2021/09/26 03:34:24;;;;;;;9.67;8.80;;;15.60;99.90;;;;;;4836136;29;20454;-90
2021/09/26 03:36:50;;;;;;;9.40;8.60;;;15.60;99.90;;;;;;4838228;29;20813;-91
2021/09/26 03:39:16;;;;;;;9.13;8.23;;;15.60;99.90;;;;;;4845337;29;20270;-90
2021/09/26 03:41:41;;;;;;;9.93;8.90;;;15.60;99.90;;;;;;4851189;29;20577;-91
2021/09/26 03:44:07;;;;;;;8.40;7.70;;;15.60;99.90;;;;;;4850302;29;20191;-91
2021/09/26 03:46:33;;;;;;;11.87;9.50;;;15.60;99.90;;;;;;4832237;29;20221;-90
2021/09/26 03:48:58;;;;;;;11.00;9.20;;;15.50;99.90;;;;;;4850675;29;20187;-90
2021/09/26 03:51:24;;;;;;;11.27;9.47;;;15.50;99.90;;;;;;4848244;29;20201;-90
2021/09/26 03:53:49;;;;;;;10.17;9.20;;;15.50;99.90;;;;;;4849133;29;20247;-90
2021/09/26 03:56:15;;;;;;;9.77;8.90;;;15.50;99.90;;;;;;4850196;29;20316;-90
2021/09/26 03:58:41;;;;;;;10.37;9.37;;;15.50;99.90;;;;;;4834388;29;20197;-90
2021/09/26 04:01:06;;;;;;;10.57;9.50;;;15.60;99.90;;;;;;4848216;29;20190;-91
2021/09/26 04:03:32;;;;;;;11.27;10.17;;;15.50;99.90;;;;;;4847617;29;20290;-90
2021/09/26 04:05:58;;;;;;;11.77;10.57;;;15.50;99.90;;;;;;4833745;29;20202;-90
2021/09/26 04:08:23;;;;;;;10.40;9.50;;;15.40;99.90;;;;;;4835198;29;20220;-90
2021/09/26 04:10:49;;;;;;;10.43;9.10;;;15.50;99.90;;;;;;4846897;29;20560;-90
2021/09/26 04:13:15;;;;;;;11.13;10.07;;;15.50;99.90;;;;;;4843530;29;20225;-90
2021/09/26 04:15:40;;;;;;;9.60;8.80;;;15.50;99.90;;;;;;4832399;29;20261;-91
2021/09/26 04:18:06;;;;;;;9.80;9.00;;;15.40;99.90;;;;;;4831887;29;20194;-89
2021/09/26 04:20:31;;;;;;;10.13;9.23;;;15.30;99.90;;;;;;4845988;29;20703;-91
2021/09/26 04:22:57;;;;;;;10.40;9.40;;;15.30;99.90;;;;;;4845904;29;20265;-89
2021/09/26 04:25:23;;;;;;;9.60;8.70;;;15.20;99.90;;;;;;4833408;29;20219;-90
2021/09/26 04:27:48;;;;;;;10.97;10.07;;;15.10;99.90;;;;;;4833316;29;20195;-90
2021/09/26 04:30:14;;;;;;;9.70;8.90;;;15.10;99.90;;;;;;4830512;29;20202;-91
2021/09/26 04:32:40;;;;;;;9.70;8.90;;;15.00;99.90;;;;;;4844947;29;20305;-90
2021/09/26 04:35:08;;;;;;;9.90;9.00;;;14.90;99.90;;;;;;4830689;29;20202;-90
2021/09/26 04:37:34;;;;;;;10.13;9.17;;;14.80;99.90;;;;;;4849883;29;20601;-91
2021/09/26 04:40:00;;;;;;;10.23;9.43;;;14.80;99.90;;;;;;4846478;29;20450;-90
2021/09/26 04:42:25;;;;;;;10.20;9.30;;;14.70;99.90;;;;;;4831558;29;20657;-90
2021/09/26 04:44:51;;;;;;;9.60;8.53;;;14.70;99.90;;;;;;4848952;29;20189;-90
2021/09/26 04:47:17;;;;;;;10.40;9.50;;;14.70;99.90;;;;;;4845980;29;20202;-90
2021/09/26 04:49:42;;;;;;;9.60;8.80;;;14.70;99.90;;;;;;4849164;29;20677;-91
2021/09/26 04:52:08;;;;;;;10.00;9.13;;;14.70;99.90;;;;;;4844215;29;20202;-90
2021/09/26 04:54:34;;;;;;;10.07;9.20;;;14.60;99.90;;;;;;4847288;29;20613;-90
2021/09/26 04:56:59;;;;;;;10.30;9.40;;;14.60;99.90;;;;;;4832033;29;20193;-89
2021/09/26 04:59:25;;;;;;;9.20;8.30;;;14.60;99.90;;;;;;4844823;29;20209;-90
2021/09/26 05:01:51;;;;;;;8.80;8.00;;;14.60;99.90;;;;;;4846854;29;20289;-90
2021/09/26 05:04:17;;;;;;;10.23;9.23;;;14.50;99.90;;;;;;4838012;29;20615;-89
2021/09/26 05:06:43;;;;;;;9.17;8.37;;;14.50;99.90;;;;;;4838246;29;20446;-89
2021/09/26 05:09:09;;;;;;;9.40;8.53;;;14.50;99.90;;;;;;4847746;29;20451;-91
2021/09/26 05:11:34;;;;;;;9.50;8.73;;;14.50;99.90;;;;;;4830417;29;20653;-90
2021/09/26 05:14:00;;;;;;;9.37;8.57;;;14.50;99.90;;;;;;4847379;29;20756;-90
2021/09/26 05:16:26;;;;;;;9.97;8.97;;;14.50;99.90;;;;;;4848384;29;20221;-91
2021/09/26 05:18:52;;;;;;;10.70;9.80;;;14.60;99.90;;;;;;4830434;29;20258;-90
2021/09/26 05:21:18;;;;;;;9.70;8.80;;;14.70;99.90;;;;;;4847432;29;20434;-90
2021/09/26 05:23:43;;;;;;;9.73;8.93;;;14.70;99.90;;;;;;4834391;29;20267;-90
2021/09/26 05:26:09;;;;;;;10.20;9.10;;;14.90;99.90;;;;;;4846375;29;20194;-91
2021/09/26 05:28:35;;;;;;;8.67;7.93;;;14.90;99.90;;;;;;4847786;29;20199;-89
2021/09/26 05:31:01;;;;;;;9.90;9.00;;;14.90;99.90;;;;;;4846247;29;20195;-91
2021/09/26 05:33:31;;;;;;;12.20;8.47;;;14.80;99.90;;;;;;4846896;29;20479;-90
2021/09/26 05:35:57;;;;;;;10.10;9.27;;;14.70;99.90;;;;;;4836032;29;20435;-90
2021/09/26 05:38:24;;;;;;;9.83;9.03;;;14.60;99.90;;;;;;4827519;29;20466;-90
2021/09/26 05:40:49;;;;;;;8.80;8.00;;;14.60;99.90;;;;;;4845323;29;20439;-90
2021/09/26 05:43:15;;;;;;;9.67;8.87;;;14.60;99.90;;;;;;4848266;29;20511;-90
2021/09/26 05:45:41;;;;;;;8.47;7.37;;;14.60;99.90;;;;;;4834270;29;20195;-90
2021/09/26 05:48:06;;;;;;;9.37;8.43;;;14.70;99.90;;;;;;4848975;29;20740;-90
2021/09/26 05:50:32;;;;;;;9.60;8.70;;;14.80;99.90;;;;;;4838366;29;20734;-90
2021/09/26 05:52:58;;;;;;;9.00;8.20;;;14.80;99.90;;;;;;4836400;29;20210;-90
2021/09/26 05:55:24;;;;;;;8.63;7.80;;;14.70;99.90;;;;;;4850719;29;20194;-90
2021/09/26 05:57:49;;;;;;;9.67;8.67;;;14.70;99.90;;;;;;4850655;29;20205;-89
2021/09/26 06:00:17;;;;;;;9.80;8.90;;;14.70;99.90;;;;;;4854389;29;20491;-90
2021/09/26 06:02:44;;;;;;;9.83;8.87;;;14.60;99.90;;;;;;4836876;29;20208;-90
2021/09/26 06:05:11;;;;;;;8.90;8.20;;;14.70;99.90;;;;;;4846286;29;20459;-90
2021/09/26 06:07:37;;;;;;;8.60;7.80;;;14.80;99.90;;;;;;4836050;29;20435;-90
2021/09/26 06:10:04;;;;;;;9.60;8.77;;;15.00;99.90;;;;;;4846006;29;20554;-90
2021/09/26 06:12:30;;;;;;;10.47;9.53;;;15.20;99.90;;;;;;4846150;29;20470;-90
2021/09/26 06:14:57;;;;;;;13.30;10.57;;;15.20;99.90;;;;;;4842542;29;20823;-90
2021/09/26 06:17:22;;;;;;;11.60;10.20;;;15.30;99.90;;;;;;4834869;29;20556;-90
2021/09/26 06:19:49;;;;;;;11.83;10.50;;;15.50;99.90;;;;;;4837621;29;20455;-90
2021/09/26 06:22:15;;;;;;;11.60;10.60;;;15.60;99.90;;;;;;4850032;29;20186;-90
2021/09/26 06:24:41;;;;;;;11.23;10.23;;;15.80;99.90;;;;;;4834917;29;20804;-90
2021/09/26 06:27:06;;;;;;;12.17;10.97;;;15.90;99.90;;;;;;4848670;29;20535;-90
2021/09/26 06:29:32;;;;;;;11.90;10.70;;;16.00;99.90;;;;;;4847924;29;20541;-90
2021/09/26 06:31:57;;;;;;;10.47;9.43;;;16.00;99.90;;;;;;4850072;29;20244;-89
2021/09/26 06:34:23;;;;;;;11.97;10.87;;;16.10;99.90;;;;;;4852570;29;20714;-89
2021/09/26 06:36:49;;;;;;;13.33;11.00;;;16.10;99.90;;;;;;4856508;29;20573;-89
2021/09/26 06:39:15;;;;;;;12.50;11.40;;;16.10;99.90;;;;;;4849174;29;20250;-91
2021/09/26 06:41:40;;;;;;;12.73;10.80;;;16.10;99.90;;;;;;4832672;29;20193;-90
2021/09/26 06:44:06;;;;;;;11.60;10.60;;;16.10;99.90;;;;;;4847180;29;20206;-91
2021/09/26 06:46:32;;;;;;;11.20;10.13;;;16.20;99.90;;;;;;4846638;29;20255;-90
2021/09/26 06:48:57;;;;;;;11.43;10.27;;;16.30;99.90;;;;;;4847086;29;20238;-90
2021/09/26 06:51:23;;;;;;;12.37;10.97;;;16.50;99.90;;;;;;4831775;29;20187;-90
2021/09/26 06:53:49;;;;;;;13.87;11.00;;;16.70;99.90;;;;;;4847829;29;20238;-90
2021/09/26 06:56:15;;;;;;;14.43;13.13;;;16.80;99.90;;;;;;4835382;29;21330;-90
2021/09/26 06:58:40;;;;;;;13.27;11.83;;;16.70;99.90;;;;;;4849466;29;20285;-89
2021/09/26 07:01:07;;;;;;;12.50;11.43;;;16.70;99.90;;;;;;4845843;29;20207;-90
2021/09/26 07:03:33;;;;;;;14.17;11.60;;;16.70;99.90;;;;;;4829750;29;20195;-90
2021/09/26 07:05:58;;;;;;;10.93;9.83;;;16.80;99.90;;;;;;4849845;29;20446;-90
2021/09/26 07:08:24;;;;;;;11.33;10.33;;;17.00;99.90;;;;;;4845618;29;20249;-90
2021/09/26 07:10:50;;;;;;;12.20;11.03;;;17.20;99.90;;;;;;4848012;29;20222;-90
2021/09/26 07:13:16;;;;;;;12.30;11.10;;;17.30;99.90;;;;;;4845598;29;20222;-90
2021/09/26 07:15:41;;;;;;;12.47;11.37;;;17.50;99.90;;;;;;4846827;29;20211;-90
2021/09/26 07:18:07;;;;;;;11.97;10.80;;;17.70;99.90;;;;;;4856048;29;20817;-92
2021/09/26 07:20:33;;;;;;;12.10;11.03;;;17.90;99.90;;;;;;4833063;29;20198;-91
2021/09/26 07:23:00;;;;;;;11.70;10.50;;;18.10;99.90;;;;;;4848895;29;20289;-90
2021/09/26 07:25:28;;;;;;;11.67;10.67;;;18.20;99.90;;;;;;4834036;29;20190;-90
2021/09/26 07:27:53;;;;;;;11.70;10.50;;;18.30;99.90;;;;;;4850285;29;20515;-91
2021/09/26 07:30:19;;;;;;;11.23;10.03;;;18.40;99.90;;;;;;4834225;29;20451;-90
2021/09/26 07:32:45;;;;;;;12.17;10.80;;;18.80;99.90;;;;;;4849720;29;20215;-91
2021/09/26 07:35:11;;;;;;;15.77;11.17;;;19.20;99.90;;;;;;4845990;29;20202;-90
2021/09/26 07:37:37;;;;;;;12.20;9.70;;;19.20;99.90;;;;;;4848391;29;20429;-90
2021/09/26 07:40:04;;;;;;;11.07;10.07;;;19.30;99.90;;;;;;4847083;29;20467;-90
2021/09/26 07:42:30;;;;;;;11.43;10.33;;;19.50;99.90;;;;;;4846332;29;20203;-90
2021/09/26 07:45:03;;;;;;;11.93;10.57;;;19.80;99.90;;;;;;4834824;29;20861;-90
2021/09/26 07:47:30;;;;;;;11.53;9.20;;;20.00;99.90;;;;;;4848801;29;20194;-90
2021/09/26 07:49:55;;;;;;;12.10;10.90;;;20.20;99.90;;;;;;4845653;29;20467;-91
2021/09/26 07:52:24;;;;;;;10.43;9.33;;;20.10;99.90;;;;;;4847136;29;20460;-89
2021/09/26 07:54:51;;;;;;;10.27;9.37;;;20.10;99.90;;;;;;4832882;29;20194;-90
2021/09/26 07:57:19;;;;;;;12.07;8.87;;;20.20;99.90;;;;;;4832143;29;20765;-91
2021/09/26 07:59:46;;;;;;;10.60;9.47;;;20.30;99.90;;;;;;4833246;29;20483;-90
2021/09/26 08:02:12;;;;;;;11.07;9.30;;;20.30;99.90;;;;;;4845342;29;20453;-90
2021/09/26 08:04:37;;;;;;;10.00;9.00;;;20.20;99.90;;;;;;4833143;29;20994;-91
2021/09/26 08:07:03;;;;;;;9.50;8.60;;;20.10;99.90;;;;;;4834468;29;21022;-90
2021/09/26 08:09:29;;;;;;;9.80;9.00;;;20.10;99.90;;;;;;4850560;29;20204;-91
2021/09/26 08:11:54;;;;;;;10.10;8.47;;;20.10;99.90;;;;;;4846326;29;20548;-90
2021/09/26 08:14:20;;;;;;;9.73;8.77;;;20.10;99.90;;;;;;4830485;29;20222;-90
2021/09/26 08:16:46;;;;;;;10.37;8.33;;;20.10;99.90;;;;;;4843450;29;20199;-90
2021/09/26 08:19:12;;;;;;;8.77;7.93;;;20.20;99.90;;;;;;4843612;29;20233;-90
2021/09/26 08:21:38;;;;;;;8.43;7.63;;;20.50;99.90;;;;;;4831204;29;20263;-90
2021/09/26 08:24:06;;;;;;;9.43;7.27;;;20.70;99.90;;;;;;4851850;29;20205;-90
2021/09/26 08:26:35;;;;;;;10.83;7.87;;;20.90;99.90;;;;;;4833125;29;20310;-90
2021/09/26 08:29:01;;;;;;;8.13;7.43;;;21.00;99.90;;;;;;4846866;29;20459;-90
2021/09/26 08:31:27;;;;;;;8.80;7.90;;;21.20;99.90;;;;;;4843932;29;20450;-90
2021/09/26 08:33:53;;;;;;;8.70;7.80;;;21.40;99.90;;;;;;4831095;29;20852;-91
2021/09/26 08:36:18;;;;;;;10.63;8.10;;;21.30;99.90;;;;;;4832477;29;20186;-91
2021/09/26 08:38:44;;;;;;;10.00;7.87;;;21.00;99.90;;;;;;4843761;29;20213;-90
2021/09/26 08:41:10;;;;;;;8.97;7.80;;;20.60;99.90;;;;;;4851219;29;20194;-90
2021/09/26 08:43:36;;;;;;;9.40;8.50;;;20.40;99.90;;;;;;4831888;29;20495;-89
2021/09/26 08:46:03;;;;;;;8.50;7.57;;;20.30;99.90;;;;;;4846747;29;20441;-90
2021/09/26 08:48:29;;;;;;;9.20;8.13;;;20.30;99.90;;;;;;4833041;29;20195;-90
2021/09/26 08:50:55;;;;;;;11.63;10.23;;;20.10;99.90;;;;;;4845694;29;20479;-90
2021/09/26 08:53:25;;;;;;;10.13;9.23;;;19.90;99.90;;;;;;4848573;29;20221;-90
2021/09/26 08:55:52;;;;;;;8.87;8.07;;;19.70;99.90;;;;;;4844860;29;21241;-90
2021/09/26 08:58:18;;;;;;;9.57;8.67;;;19.70;99.90;;;;;;4848693;29;20980;-91
2021/09/26 09:00:44;;;;;;;9.40;8.50;;;19.60;99.90;;;;;;4850912;29;20439;-90
2021/09/26 09:03:11;;;;;;;9.60;8.70;;;19.50;99.90;;;;;;4829751;29;20950;-89
2021/09/26 09:05:39;;;;;;;8.83;7.83;;;19.40;99.90;;;;;;4848234;29;20681;-89
2021/09/26 09:08:09;;;;;;;9.27;7.97;;;19.50;99.90;;;;;;4832306;29;20466;-90
2021/09/26 09:11:00;;;;;;;8.77;7.97;;;19.50;99.90;;;;;;4845829;29;20447;-90
2021/09/26 09:13:34;;;;;;;9.57;7.63;;;19.60;99.90;;;;;;4834029;29;20731;-90
2021/09/26 09:16:07;;;;;;;8.80;8.00;;;19.40;99.90;;;;;;4833290;29;20448;-89
2021/09/26 09:18:41;;;;;;;9.47;8.60;;;19.40;99.90;;;;;;4844579;29;20451;-90
2021/09/26 09:21:33;;;;;;;10.10;9.10;;;19.30;99.90;;;;;;4848966;29;20426;-89
2021/09/26 09:24:15;;;;;;;10.70;9.00;;;19.30;99.90;;;;;;4848335;29;20463;-90
2021/09/26 09:26:45;;;;;;;9.70;8.80;;;19.20;99.90;;;;;;4848857;29;20458;-89
2021/09/26 09:29:11;;;;;;;10.00;9.10;;;19.30;99.90;;;;;;4834217;29;20498;-90
2021/09/26 09:32:17;;;;;;;8.97;8.13;;;19.30;99.90;;;;;;4849080;29;20504;-90
2021/09/26 09:34:43;;;;;;;10.90;9.90;;;19.10;99.90;;;;;;4831022;29;20879;-90
2021/09/26 09:37:14;;;;;;;10.40;9.43;;;19.10;99.90;;;;;;4839033;29;20446;-90
2021/09/26 09:39:41;;;;;;;12.13;10.93;;;19.10;99.90;;;;;;4845377;29;21349;-89
2021/09/26 09:42:21;;;;;;;11.40;10.30;;;19.10;99.90;;;;;;4850055;29;20447;-89
2021/09/26 09:44:47;;;;;;;11.40;10.30;;;19.10;99.90;;;;;;4853566;29;20455;-91
2021/09/26 09:47:13;;;;;;;11.27;10.17;;;19.10;99.90;;;;;;4852825;29;20448;-90
2021/09/26 09:49:55;;;;;;;11.70;10.50;;;19.10;99.90;;;;;;4852223;29;20786;-88
2021/09/26 09:52:40;;;;;;;10.70;9.63;;;19.10;99.90;;;;;;4837327;29;20485;-89
2021/09/26 09:55:07;;;;;;;12.13;10.67;;;19.10;99.90;;;;;;4834550;29;20549;-89
2021/09/26 09:57:32;;;;;;;11.63;10.53;;;19.10;99.90;;;;;;4832914;29;20498;-89
2021/09/26 10:00:14;;;;;;;11.90;10.83;;;19.20;99.90;;;;;;4849843;29;20440;-89
2021/09/26 10:02:40;;;;;;;10.63;9.67;;;19.20;99.90;;;;;;4848154;29;20195;-89
2021/09/26 10:05:06;;;;;;;12.10;11.00;;;19.10;99.90;;;;;;4833819;29;20815;-89
2021/09/26 10:07:32;;;;;;;12.60;11.33;;;19.10;99.90;;;;;;4836351;29;20440;-89
2021/09/26 10:09:58;;;;;;;11.60;10.60;;;19.00;99.90;;;;;;4835363;29;20819;-89
2021/09/26 10:12:30;;;;;;;11.50;10.33;;;18.90;99.90;;;;;;4847303;29;20248;-88
2021/09/26 10:15:02;;;;;;;12.30;11.10;;;19.00;99.90;;;;;;4851881;29;20466;-89
2021/09/26 10:17:29;;;;;;;12.10;10.90;;;19.00;99.90;;;;;;4846194;29;20435;-88
2021/09/26 10:19:56;;;;;;;12.53;11.33;;;18.90;99.90;;;;;;4833500;29;20885;-89
2021/09/26 10:22:22;;;;;;;12.30;11.10;;;19.00;99.90;;;;;;4837145;29;20463;-89
2021/09/26 10:24:52;;;;;;;12.80;11.70;;;18.90;99.90;;;;;;4850897;29;20483;-89
2021/09/26 10:27:22;;;;;;;12.47;11.10;;;18.90;99.90;;;;;;4849880;29;20439;-89
2021/09/26 10:29:52;;;;;;;12.73;11.40;;;18.90;99.90;;;;;;4834512;29;20456;-89
2021/09/26 10:32:19;;;;;;;13.00;10.97;;;18.90;99.90;;;;;;4846959;29;20503;-88
2021/09/26 10:34:45;;;;;;;12.07;10.57;;;18.90;99.90;;;;;;4850664;29;20444;-89
2021/09/26 10:37:14;;;;;;;13.70;12.33;;;18.90;99.90;;;;;;4848323;29;20443;-89
2021/09/26 10:39:41;;;;;;;12.80;11.50;;;18.90;99.90;;;;;;4847875;29;20224;-89
2021/09/26 10:42:13;;;;;;;13.00;11.70;;;19.10;99.90;;;;;;4846886;29;20584;-89
2021/09/26 10:44:53;;;;;;;13.57;12.27;;;19.10;99.90;;;;;;4844264;29;20542;-89
2021/09/26 10:47:24;;;;;;;13.70;12.40;;;19.10;99.90;;;;;;4849242;29;20463;-89
2021/09/26 10:50:02;;;;;;;14.00;12.60;;;19.20;99.90;;;;;;4849071;29;20455;-89
2021/09/26 10:52:28;;;;;;;13.67;12.37;;;19.20;99.90;;;;;;4850504;29;20431;-89
2021/09/26 10:54:56;;;;;;;13.50;12.20;;;19.20;99.90;;;;;;4847186;29;20528;-89
2021/09/26 10:57:27;;;;;;;14.17;12.77;;;19.20;99.90;;;;;;4853799;29;20576;-89
2021/09/26 10:59:57;;;;;;;14.07;12.67;;;19.20;99.90;;;;;;4848037;29;20531;-89
2021/09/26 11:02:23;;;;;;;14.37;12.97;;;19.20;99.90;;;;;;4847457;29;20492;-89
2021/09/26 11:04:50;;;;;;;17.30;11.43;;;19.30;99.90;;;;;;4849095;29;21199;-89
2021/09/26 11:07:17;;;;;;;13.10;11.87;;;19.40;99.90;;;;;;4829599;29;20562;-89
2021/09/26 11:09:53;;;;;;;13.37;11.93;;;19.30;99.90;;;;;;4850991;29;20469;-90
2021/09/26 11:12:37;;;;;;;11.53;10.53;;;19.40;99.90;;;;;;4831026;29;20504;-89
2021/09/26 11:15:05;;;;;;;12.50;11.33;;;19.30;99.90;;;;;;4850912;29;20447;-89
2021/09/26 11:17:40;;;;;;;12.90;11.60;;;19.20;99.90;;;;;;4832336;29;20443;-89
2021/09/26 11:20:06;;;;;;;13.00;11.80;;;19.10;99.90;;;;;;4847104;29;20814;-89
2021/09/26 11:22:32;;;;;;;11.37;10.37;;;19.20;99.90;;;;;;4833860;29;20851;-88
2021/09/26 11:24:59;;;;;;;13.03;11.10;;;19.20;99.90;;;;;;4834093;29;20542;-89
2021/09/26 11:27:37;;;;;;;12.63;11.43;;;19.30;99.90;;;;;;4830271;29;20560;-89
2021/09/26 11:30:06;;;;;;;12.37;11.27;;;19.50;99.90;;;;;;4849916;29;20805;-89
2021/09/26 11:32:33;;;;;;;12.87;11.67;;;19.60;99.90;;;;;;4832472;29;20446;-89
2021/09/26 11:35:27;;;;;;;11.70;10.37;;;19.70;99.90;;;;;;4847597;29;20454;-88
2021/09/26 11:37:54;;;;;;;12.20;11.03;;;19.80;99.90;;;;;;4845342;29;20958;-89
2021/09/26 11:40:29;;;;;;;12.10;10.90;;;19.90;99.90;;;;;;4831656;29;20818;-90
2021/09/26 11:42:55;;;;;;;12.03;11.03;;;19.90;99.90;;;;;;4851614;29;20960;-90
2021/09/26 11:45:31;;;;;;;12.30;11.20;;;20.10;99.90;;;;;;4846191;29;20443;-90
2021/09/26 11:48:05;;;;;;;13.07;11.97;;;20.10;99.90;;;;;;4841818;29;20537;-90
2021/09/26 11:50:34;;;;;;;10.33;9.40;;;20.20;99.90;;;;;;4829951;29;20459;-90
2021/09/26 11:53:00;;;;;;;10.60;9.70;;;20.30;99.90;;;;;;4846556;29;20541;-90
2021/09/26 11:55:30;;;;;;;9.93;8.93;;;20.30;99.90;;;;;;4828408;29;20441;-90
2021/09/26 11:57:58;;;;;;;12.13;10.03;;;20.30;99.90;;;;;;4831142;29;20456;-89
2021/09/26 12:00:27;;;;;;;11.03;10.03;;;20.10;99.90;;;;;;4828511;29;20997;-90
2021/09/26 12:02:53;;;;;;;10.97;9.97;;;20.10;99.90;;;;;;4846409;29;20962;-89
2021/09/26 12:05:36;;;;;;;10.87;9.80;;;20.10;99.90;;;;;;4845214;29;20460;-89
2021/09/26 12:08:03;;;;;;;11.60;10.60;;;20.30;99.90;;;;;;4847269;29;20455;-90
2021/09/26 12:10:29;;;;;;;11.50;10.50;;;20.50;99.90;;;;;;4850746;29;21524;-90
2021/09/26 12:12:55;;;;;;;13.90;10.70;;;20.80;99.90;;;;;;4847164;29;20494;-89
2021/09/26 12:15:20;;;;;;;11.27;10.27;;;21.00;99.90;;;;;;4832418;29;20989;-91
2021/09/26 12:17:55;;;;;;;11.53;10.43;;;21.30;99.90;;;;;;4846614;29;20210;-90
2021/09/26 12:20:21;;;;;;;10.60;9.70;;;21.60;99.90;;;;;;4848626;29;20195;-90
2021/09/26 12:22:47;;;;;;;11.80;10.80;;;22.00;99.90;;;;;;4845165;29;20452;-91
2021/09/26 12:25:36;;;;;;;10.50;9.53;;;22.00;99.90;;;;;;4847538;29;20447;-90
2021/09/26 12:28:07;;;;;;;11.63;10.63;;;21.90;99.90;;;;;;4850073;29;20451;-90
2021/09/26 12:30:38;;;;;;;10.70;9.80;;;21.90;99.90;;;;;;4844528;29;20448;-90
2021/09/26 12:33:17;;;;;;;10.80;9.70;;;22.00;99.90;;;;;;4848558;29;21792;-90
2021/09/26 12:35:51;;;;;;;10.30;9.30;;;22.10;99.90;;;;;;4831713;29;21000;-90
2021/09/26 12:38:22;;;;;;;12.73;10.43;;;22.00;99.90;;;;;;4831408;29;20514;-90
2021/09/26 12:41:00;;;;;;;10.10;9.20;;;22.20;99.90;;;;;;4847051;29;20473;-89
2021/09/26 12:43:46;;;;;;;9.83;8.97;;;22.20;99.90;;;;;;4830729;29;20459;-89
2021/09/26 12:46:15;;;;;;;10.37;9.37;;;22.10;99.90;;;;;;4833350;29;20527;-89